Pinetown, South Africa
Current Conditions -  °F | °C
As of 10:00 PM on Thursday 23 Oct 2014 (Local Time) from FALE Reporting Station
Scattered Clouds Scattered Clouds  
Wind Chill: 68°   Ceiling: Unl
Heat Index: 68°   Visibility: 6mi
Dew Point: 61°   Wind: 8mph
Humidity: 78%   Direction: 20°NNE
Pressure: 29.97"   Gusts: NA
Location:  29.76°S, 30.83°E
Report Text: FALE 232000Z 02007KT 9999 FEW020 SCT027 20/16 Q1015 NOSIG
Loading
Personal Weather Stations






























Interactive Weather Map
Tropical Storm Tracking
New forecast layout! Learn more

10-Day Weather Forecast

Advertisements
Track Severe Weather on mobile